Capitalizator.

Capitalize Yourself: Right Data. Real Growth.

Sector Analysis

Pharmaceutical Preparations

Standard Industrial Classification: SIC 2834

Industry Insider Sentiment Analysis

The Pharmaceutical Preparations sector (SIC 2834) acts as a critical barometer for broader economic health. Our real-time monitoring reveals total transactions. Monitoring "cluster buying" is one of the most reliable leading indicators for future sector performance. By analyzing aggregate data across this specific Standard Industrial Classification, investors can filter out individual company volatility and identify high-conviction trends. When multiple directors and officers within the same industry move capital simultaneously, it often signals an upcoming sector-wide revaluation or a fundamental shift in supply chain dynamics that has yet to be recognized by the broader public market.

Filing Date Trade Date Ticker Company Reporting Person Relationship Type Price Qty Total, $ Owned After
2026-03-04 04:42 2026-03-02 ARQT Arcutis Biotherapeutics Inc. Watanabe Todd Director, Officer SELL $25.18 37,349 $940,526 785,957
2026-03-04 04:43 2026-03-02 ARQT Arcutis Biotherapeutics Inc. Edwards Larry Todd Officer SELL $25.18 3,687 $92,846 175,178
2026-03-04 04:20 2026-03-02 ABT Abbott Laboratories Shroff Eric Officer SELL $115.58 709 $81,946 39,164
2026-03-04 04:05 2026-03-02 GNLX GENELUX Corp Thomas John Director SELL $2.90 10,000 $28,957 482,784
2026-03-04 04:06 2026-03-02 ABT Abbott Laboratories Morrone Louis H. Officer SELL $115.58 1,144 $132,224 76,843
2026-03-04 04:10 2026-03-02 ABT Abbott Laboratories Salvadori Daniel Gesua Sive Officer SELL $115.58 885 $102,288 146,377
2026-03-04 03:55 2026-03-02 ABT Abbott Laboratories MCCOY JOHN A. JR. Officer SELL $115.58 585 $67,614 24,628
2026-03-04 03:39 2026-03-02 ABT Abbott Laboratories Cushman Elizabeth C. Officer SELL $115.58 263 $30,398 38,573
2026-03-04 03:06 2026-03-02 RARE Ultragenyx Pharmaceutical Inc. KAKKIS EMIL D Director, Officer SELL $22.80 54,404 $1,240,411 658,994
2026-03-04 03:08 2026-03-02 RARE Ultragenyx Pharmaceutical Inc. Harris Erik Officer SELL $22.80 10,539 $240,289 89,515
2026-03-04 03:09 2026-03-02 RARE Ultragenyx Pharmaceutical Inc. Pinion John Richard Officer SELL $22.80 10,029 $228,661 110,026
2026-03-04 02:10 2026-03-02 ABBV AbbVie Inc. Siatis Perry C Officer SELL $234.39 18,668 $4,375,550 4,619
2026-03-04 00:25 2026-02-27 VRTX VERTEX PHARMACEUTICALS INC / MA Bozic Carmen Officer SELL $480.31 2,329 $1,118,642 37,734
2026-03-04 00:25 2026-03-02 KPTI Karyopharm Therapeutics Inc. Rangwala Reshma Officer SELL $9.41 5,066 $47,669 56,739
2026-03-03 16:00 2026-03-02 FBLG FibroBiologics, Inc. Davis Jason Officer BUY $0.41 70,000 $28,973 70,000
2026-03-03 00:32 2026-02-26 NUVL Nuvalent, Inc. Miller Deborah Ann Officer OPT+S $103.05 5,500 $566,788 59,634
2026-03-03 00:01 2026-02-26 TEVA TEVA PHARMACEUTICAL INDUSTRIES LTD Kalif Eliyahu Sharon Officer SELL $33.64 345,810 $11,634,708 57,478
2026-03-03 00:30 2026-02-23 OVID Ovid Therapeutics Inc. ALEXANDER MARGARET A. Director, Officer SELL $1.45 11,656 $16,901 61,750
2026-03-03 00:30 2026-02-27 LRMR Larimar Therapeutics, Inc. Hamilton Thomas Edward Director BUY $5.00 100,000 $500,000 664,798
2026-03-03 00:30 2026-02-23 OVID Ovid Therapeutics Inc. Rona Jeffrey A Officer SELL $1.45 8,541 $12,384 88,188
2026-03-03 00:30 2026-02-27 LRMR Larimar Therapeutics, Inc. THOMAS FRANK E Director BUY $5.00 5,000 $25,000 7,000
2026-03-03 01:14 2026-02-26 JAZZ Jazz Pharmaceuticals plc Carr Patricia Officer SELL $192.60 2,370 $456,466 9,235
2026-03-03 00:30 2026-02-27 LRMR Larimar Therapeutics, Inc. SHERMAN JEFFREY W Director BUY $5.00 5,000 $25,000 5,000
2026-03-03 00:30 2026-02-27 UTHR UNITED THERAPEUTICS Corp Olian Judy D. Director SELL $509.55 200 $101,910 4,845
2026-03-03 00:29 2026-03-02 CYTK CYTOKINETICS INC PARSHALL B LYNNE Director SELL $61.21 5,000 $306,050 17,933
2026-03-03 00:28 2026-03-02 CYTK CYTOKINETICS INC Callos Andrew Officer OPT+S $61.62 886 $54,595 50,440
2026-03-03 04:57 2026-02-27 ARVN Arvinas Inc. Houston John G Director SELL $13.21 35,297 $466,153 1,122,183
2026-03-03 03:46 2026-02-27 LRMR Larimar Therapeutics, Inc. Flynn James E Director, 10% owner BUY $5.00 5,000,000 $25,000,000 6,207,982
2026-03-03 03:18 2026-03-02 IDYA IDEAYA Biosciences, Inc. Stein Jeffrey Director BUY $32.96 50,000 $1,647,890 54,281
2026-03-03 03:05 2026-03-02 NRIX Nurix Therapeutics, Inc. Ring Christine Officer SELL $15.44 8,148 $125,793 34,601
2026-03-03 02:44 2026-02-26 LFVN Lifevantage Corp Dayton Judd Director BUY $4.59 33,197 $152,421 80,359
2026-03-03 02:47 2026-03-02 ORKA Oruka Therapeutics, Inc. Sandler Laura Lee Officer OPT+S $33.56 5,000 $167,822 237,584
2026-03-03 02:28 2026-03-02 CTNM Contineum Therapeutics, Inc. Watkins Tim Officer OPT+S $15.02 3,611 $54,220 0
2026-03-03 02:30 2026-03-02 CTNM Contineum Therapeutics, Inc. Lorrain Daniel S. Officer SELL $15.01 4,170 $62,585 151,882
2026-03-03 02:05 2026-03-02 GENB Generate Biomedicines, Inc. Grous Beth Officer BUY $16.00 300 $4,800 300
2026-03-03 02:08 2026-03-02 NAMS NewAmsterdam Pharma Co N.V. Davidson Michael H. Director, Officer OPT+S $33.25 443,707 $14,753,258 174,144
2026-03-03 01:47 2026-03-02 GENB Generate Biomedicines, Inc. Mendillo Jane L Director BUY $16.00 1,500 $24,000 1,500
2026-03-03 01:52 2026-03-02 GENB Generate Biomedicines, Inc. AFEYAN NOUBAR Director, 10% owner BUY $16.00 4,687,500 $75,000,000 1,562,500
2026-03-03 01:54 2026-03-02 GENB Generate Biomedicines, Inc. Silvers Jason Officer BUY $16.00 2,000 $32,000 1,000
2026-03-03 01:32 2026-03-02 MDGL MADRIGAL PHARMACEUTICALS, INC. Dier Mardi Officer SELL $427.21 1,183 $505,389 9,257
2026-03-03 01:36 2026-02-27 JAZZ Jazz Pharmaceuticals plc RIEDEL NORBERT G Director OPT+S $192.00 3,415 $655,680 7,024
2026-03-03 01:04 2026-02-26 JAZZ Jazz Pharmaceuticals plc Henderson Mary Elizabeth Officer SELL $194.49 5,343 $1,039,134 28,728
2026-03-03 01:05 2026-02-26 EDSA Edesa Biotech, Inc. Nijhawan Pardeep Director, Officer, 10% owner BUY $1.96 50,571 $99,175 371,702
2026-03-03 01:06 2026-02-26 JAZZ Jazz Pharmaceuticals plc Patil Neena M Officer OPT+S $191.56 55,600 $10,650,480 58,818
2026-03-03 00:34 2026-02-26 NUVL Nuvalent, Inc. Noci Darlene Officer OPT+S $103.03 5,500 $566,682 58,117
2026-03-03 00:22 2026-02-26 BCAX Bicara Therapeutics Inc. RA CAPITAL MANAGEMENT, L.P. Director, 10% owner BUY $16.00 300,000 $4,800,000 4,603,418
2026-03-03 00:08 2026-02-27 ALNY Alnylam Pharmaceuticals Inc. Garg Pushkal Officer OPT+S $331.34 4,627 $1,533,100 22,129
2026-03-03 00:10 2026-02-26 VRTX VERTEX PHARMACEUTICALS INC / MA Ambrose Kristen Officer SELL $483.36 357 $172,560 6,624
2026-03-02 22:16 2026-02-27 ABCL AbCellera Biologics Inc. Thermopylae Holdings Ltd. 10% owner BUY $3.44 38,000 $130,720 56,134,097
2026-03-02 17:15 2026-02-27 FBLG FibroBiologics, Inc. GARCIA RUBEN A Officer BUY $0.33 40,000 $13,056 180,000
SHOW ENTRIES

Sector-Wide Insider Alpha

Analyzing insider movements across the Pharmaceutical Preparations sector provides a macro-view of executive conviction. When multiple leaders in different companies within the same SIC code (2834) simultaneously buy shares, it often indicates an industry-wide undervaluation or a positive shift in market cycles.

SEC Filings in Pharmaceutical Preparations

Every transaction in the Pharmaceutical Preparations industry is reported via Form 4 disclosures. By filtering these filings by industry, investors can detect institutional-scale sentiment shifts before they are reflected in broader market indices, following the capital flow of those with intimate industry knowledge.

UNDERSTANDING THE DATA

FILING DATE: The date and time when the transaction was reported to the SEC. This is when the public first receives the information.

TRADE DATE: The actual day the insider executed the purchase or sale in the market.

INDUSTRY: The specific market sector the company operates in. Useful for identifying broader institutional capital flows across sectors.

OWNED AFTER: The total number of shares held by the insider following the transaction. This highlights the insider's remaining conviction in the company.

CHANGE %: The percentage increase or decrease of the insider's total position. Large percentage changes often carry more weight than the dollar amount alone.

TRADE TYPES DEFINITIONS

BUY: An open market purchase. Typically indicates an insider's belief that the stock is undervalued or poised for growth.

SELL: An open market sale. While often used for diversification or liquidity, large or unexpected sales can be a warning signal.

OPT+S (OPTION EXERCISE & SALE): This occurs when an insider exercises their stock options and sells them immediately. Often part of a structured compensation plan.